sensor_id;sensor_type;location;lat;lon;timestamp;temperature;humidity
30899;DHT22;17914;52.484;13.424;2024-02-21T00:02:23;22.00;48.00
30899;DHT22;17914;52.484;13.424;2024-02-21T00:04:51;22.00;48.10
30899;DHT22;17914;52.484;13.424;2024-02-21T00:07:19;21.90;48.10
30899;DHT22;17914;52.484;13.424;2024-02-21T00:09:49;21.90;48.00
30899;DHT22;17914;52.484;13.424;2024-02-21T00:12:17;21.90;48.00
30899;DHT22;17914;52.484;13.424;2024-02-21T00:14:45;21.80;48.10
30899;DHT22;17914;52.484;13.424;2024-02-21T00:17:13;21.80;48.20
30899;DHT22;17914;52.484;13.424;2024-02-21T00:19:41;21.80;48.10
30899;DHT22;17914;52.484;13.424;2024-02-21T00:22:09;21.80;48.00
30899;DHT22;17914;52.484;13.424;2024-02-21T00:24:37;21.80;48.10
30899;DHT22;17914;52.484;13.424;2024-02-21T00:27:06;21.80;48.70
30899;DHT22;17914;52.484;13.424;2024-02-21T00:29:34;21.70;48.00
30899;DHT22;17914;52.484;13.424;2024-02-21T00:32:03;21.80;48.00
30899;DHT22;17914;52.484;13.424;2024-02-21T00:34:31;21.70;47.90
30899;DHT22;17914;52.484;13.424;2024-02-21T00:36:59;21.70;48.00
30899;DHT22;17914;52.484;13.424;2024-02-21T00:39:27;21.70;48.10
30899;DHT22;17914;52.484;13.424;2024-02-21T00:41:55;21.60;48.70
30899;DHT22;17914;52.484;13.424;2024-02-21T00:44:25;21.60;48.20
30899;DHT22;17914;52.484;13.424;2024-02-21T00:46:53;21.60;48.40
30899;DHT22;17914;52.484;13.424;2024-02-21T00:49:21;21.60;48.40
30899;DHT22;17914;52.484;13.424;2024-02-21T00:51:49;21.50;48.40
30899;DHT22;17914;52.484;13.424;2024-02-21T00:54:17;21.60;48.50
30899;DHT22;17914;52.484;13.424;2024-02-21T00:56:45;21.60;48.40
30899;DHT22;17914;52.484;13.424;2024-02-21T00:59:13;21.60;48.40
30899;DHT22;17914;52.484;13.424;2024-02-21T01:01:43;21.50;48.50
30899;DHT22;17914;52.484;13.424;2024-02-21T01:04:11;21.50;48.60
30899;DHT22;17914;52.484;13.424;2024-02-21T01:06:40;21.50;48.30
30899;DHT22;17914;52.484;13.424;2024-02-21T01:09:11;21.50;48.40
30899;DHT22;17914;52.484;13.424;2024-02-21T01:11:39;21.50;48.60
30899;DHT22;17914;52.484;13.424;2024-02-21T01:14:07;21.50;48.90
30899;DHT22;17914;52.484;13.424;2024-02-21T01:16:35;21.50;48.40
30899;DHT22;17914;52.484;13.424;2024-02-21T01:19:05;21.50;49.10
30899;DHT22;17914;52.484;13.424;2024-02-21T01:21:33;21.40;48.40
30899;DHT22;17914;52.484;13.424;2024-02-21T01:24:01;21.50;48.30
30899;DHT22;17914;52.484;13.424;2024-02-21T01:26:29;21.50;48.20
30899;DHT22;17914;52.484;13.424;2024-02-21T01:28:57;21.50;48.20
30899;DHT22;17914;52.484;13.424;2024-02-21T01:31:25;21.50;48.20
30899;DHT22;17914;52.484;13.424;2024-02-21T01:33:53;21.50;48.20
30899;DHT22;17914;52.484;13.424;2024-02-21T01:36:22;21.40;48.00
30899;DHT22;17914;52.484;13.424;2024-02-21T01:38:50;21.40;48.20
30899;DHT22;17914;52.484;13.424;2024-02-21T01:41:18;21.40;48.40
30899;DHT22;17914;52.484;13.424;2024-02-21T01:43:46;21.40;48.20
30899;DHT22;17914;52.484;13.424;2024-02-21T01:46:14;21.40;48.20
30899;DHT22;17914;52.484;13.424;2024-02-21T01:48:42;21.40;48.30
30899;DHT22;17914;52.484;13.424;2024-02-21T01:51:13;21.30;48.10
30899;DHT22;17914;52.484;13.424;2024-02-21T01:53:43;21.40;48.30
30899;DHT22;17914;52.484;13.424;2024-02-21T01:56:12;21.30;48.00
30899;DHT22;17914;52.484;13.424;2024-02-21T01:58:41;21.40;48.30
30899;DHT22;17914;52.484;13.424;2024-02-21T02:01:10;21.30;48.80
30899;DHT22;17914;52.484;13.424;2024-02-21T02:03:38;21.30;48.20
30899;DHT22;17914;52.484;13.424;2024-02-21T02:06:07;21.30;48.30
30899;DHT22;17914;52.484;13.424;2024-02-21T02:08:35;21.30;48.20
30899;DHT22;17914;52.484;13.424;2024-02-21T02:11:05;21.30;48.10
30899;DHT22;17914;52.484;13.424;2024-02-21T02:13:34;21.20;48.30
30899;DHT22;17914;52.484;13.424;2024-02-21T02:16:02;21.20;48.20
30899;DHT22;17914;52.484;13.424;2024-02-21T02:18:30;21.20;48.30
30899;DHT22;17914;52.484;13.424;2024-02-21T02:20:58;21.20;48.40
30899;DHT22;17914;52.484;13.424;2024-02-21T02:23:28;21.20;48.30
30899;DHT22;17914;52.484;13.424;2024-02-21T02:25:57;21.30;48.40
30899;DHT22;17914;52.484;13.424;2024-02-21T02:28:26;21.20;48.50
30899;DHT22;17914;52.484;13.424;2024-02-21T02:30:54;21.20;48.50
30899;DHT22;17914;52.484;13.424;2024-02-21T02:33:22;21.20;48.50
30899;DHT22;17914;52.484;13.424;2024-02-21T02:35:50;21.20;48.20
30899;DHT22;17914;52.484;13.424;2024-02-21T02:38:18;21.20;48.20
30899;DHT22;17914;52.484;13.424;2024-02-21T02:40:48;21.20;48.50
30899;DHT22;17914;52.484;13.424;2024-02-21T02:43:16;21.20;48.60
30899;DHT22;17914;52.484;13.424;2024-02-21T02:45:44;21.20;48.40
30899;DHT22;17914;52.484;13.424;2024-02-21T02:48:12;21.20;48.70
30899;DHT22;17914;52.484;13.424;2024-02-21T02:50:40;21.20;48.70
30899;DHT22;17914;52.484;13.424;2024-02-21T02:53:08;21.20;48.90
30899;DHT22;17914;52.484;13.424;2024-02-21T02:55:36;21.10;48.90
30899;DHT22;17914;52.484;13.424;2024-02-21T02:58:05;21.10;49.10
30899;DHT22;17914;52.484;13.424;2024-02-21T03:00:33;21.10;48.90
30899;DHT22;17914;52.484;13.424;2024-02-21T03:03:03;21.10;49.10
30899;DHT22;17914;52.484;13.424;2024-02-21T03:05:31;21.10;49.00
30899;DHT22;17914;52.484;13.424;2024-02-21T03:08:00;21.10;49.40
30899;DHT22;17914;52.484;13.424;2024-02-21T03:10:28;21.10;49.00
30899;DHT22;17914;52.484;13.424;2024-02-21T03:12:56;21.10;49.10
30899;DHT22;17914;52.484;13.424;2024-02-21T03:15:25;21.10;49.20
30899;DHT22;17914;52.484;13.424;2024-02-21T03:17:53;21.10;49.10
30899;DHT22;17914;52.484;13.424;2024-02-21T03:20:21;21.10;48.80
30899;DHT22;17914;52.484;13.424;2024-02-21T03:22:49;21.10;48.80
30899;DHT22;17914;52.484;13.424;2024-02-21T03:25:18;21.10;48.90
30899;DHT22;17914;52.484;13.424;2024-02-21T03:27:46;21.10;48.80
30899;DHT22;17914;52.484;13.424;2024-02-21T03:30:14;21.10;48.90
30899;DHT22;17914;52.484;13.424;2024-02-21T03:32:44;21.10;48.90
30899;DHT22;17914;52.484;13.424;2024-02-21T03:35:12;21.10;49.20
30899;DHT22;17914;52.484;13.424;2024-02-21T03:37:40;21.10;49.00
30899;DHT22;17914;52.484;13.424;2024-02-21T03:40:09;21.10;49.00
30899;DHT22;17914;52.484;13.424;2024-02-21T03:42:38;21.10;49.00
30899;DHT22;17914;52.484;13.424;2024-02-21T03:45:07;21.00;49.00
30899;DHT22;17914;52.484;13.424;2024-02-21T03:47:35;21.00;49.10
30899;DHT22;17914;52.484;13.424;2024-02-21T03:50:05;21.00;49.70
30899;DHT22;17914;52.484;13.424;2024-02-21T03:52:34;21.00;48.90
30899;DHT22;17914;52.484;13.424;2024-02-21T03:55:02;21.00;48.80
30899;DHT22;17914;52.484;13.424;2024-02-21T03:57:30;21.00;48.90
30899;DHT22;17914;52.484;13.424;2024-02-21T03:59:58;21.00;49.10
30899;DHT22;17914;52.484;13.424;2024-02-21T04:02:26;21.00;49.10
30899;DHT22;17914;52.484;13.424;2024-02-21T04:04:54;21.00;48.90
30899;DHT22;17914;52.484;13.424;2024-02-21T04:07:24;21.00;48.80
30899;DHT22;17914;52.484;13.424;2024-02-21T04:09:52;21.00;49.10
30899;DHT22;17914;52.484;13.424;2024-02-21T04:12:21;20.90;49.00
30899;DHT22;17914;52.484;13.424;2024-02-21T04:14:49;20.90;48.90
30899;DHT22;17914;52.484;13.424;2024-02-21T04:17:17;20.90;48.90
30899;DHT22;17914;52.484;13.424;2024-02-21T04:19:45;20.90;48.90
30899;DHT22;17914;52.484;13.424;2024-02-21T04:22:13;20.90;49.70
30899;DHT22;17914;52.484;13.424;2024-02-21T04:24:42;20.90;49.40
30899;DHT22;17914;52.484;13.424;2024-02-21T04:27:10;20.90;49.20
30899;DHT22;17914;52.484;13.424;2024-02-21T04:29:38;20.90;49.30
30899;DHT22;17914;52.484;13.424;2024-02-21T04:32:06;20.90;49.40
30899;DHT22;17914;52.484;13.424;2024-02-21T04:34:35;20.80;49.30
30899;DHT22;17914;52.484;13.424;2024-02-21T04:37:03;20.90;49.30
30899;DHT22;17914;52.484;13.424;2024-02-21T04:39:31;20.90;49.50
30899;DHT22;17914;52.484;13.424;2024-02-21T04:42:01;20.80;49.30
30899;DHT22;17914;52.484;13.424;2024-02-21T04:44:29;20.80;49.50
30899;DHT22;17914;52.484;13.424;2024-02-21T04:46:57;20.90;49.60
30899;DHT22;17914;52.484;13.424;2024-02-21T04:49:25;20.80;49.60
30899;DHT22;17914;52.484;13.424;2024-02-21T04:51:53;20.80;49.80
30899;DHT22;17914;52.484;13.424;2024-02-21T04:54:21;20.80;49.60
30899;DHT22;17914;52.484;13.424;2024-02-21T04:56:49;20.80;49.80
30899;DHT22;17914;52.484;13.424;2024-02-21T04:59:21;20.80;50.50
30899;DHT22;17914;52.484;13.424;2024-02-21T05:01:49;20.80;49.80
30899;DHT22;17914;52.484;13.424;2024-02-21T05:04:17;20.80;49.70
30899;DHT22;17914;52.484;13.424;2024-02-21T05:06:45;20.90;49.50
30899;DHT22;17914;52.484;13.424;2024-02-21T05:09:13;20.80;49.20
30899;DHT22;17914;52.484;13.424;2024-02-21T05:11:41;20.80;49.50
30899;DHT22;17914;52.484;13.424;2024-02-21T05:14:09;20.80;49.40
30899;DHT22;17914;52.484;13.424;2024-02-21T05:16:40;20.80;49.30
30899;DHT22;17914;52.484;13.424;2024-02-21T05:19:08;20.80;49.60
30899;DHT22;17914;52.484;13.424;2024-02-21T05:21:36;20.80;49.50
30899;DHT22;17914;52.484;13.424;2024-02-21T05:24:05;20.80;49.50
30899;DHT22;17914;52.484;13.424;2024-02-21T05:26:33;20.80;49.40
30899;DHT22;17914;52.484;13.424;2024-02-21T05:29:01;20.80;49.30
30899;DHT22;17914;52.484;13.424;2024-02-21T05:31:54;20.80;49.20
30899;DHT22;17914;52.484;13.424;2024-02-21T05:34:22;20.80;49.40
30899;DHT22;17914;52.484;13.424;2024-02-21T05:36:51;20.70;49.30
30899;DHT22;17914;52.484;13.424;2024-02-21T05:39:19;20.80;49.40
30899;DHT22;17914;52.484;13.424;2024-02-21T05:41:49;20.70;49.20
30899;DHT22;17914;52.484;13.424;2024-02-21T05:44:18;20.70;49.40
30899;DHT22;17914;52.484;13.424;2024-02-21T05:46:48;20.80;49.50
30899;DHT22;17914;52.484;13.424;2024-02-21T05:49:16;20.80;49.40
30899;DHT22;17914;52.484;13.424;2024-02-21T05:51:44;20.80;49.60
30899;DHT22;17914;52.484;13.424;2024-02-21T05:54:12;20.70;49.40
30899;DHT22;17914;52.484;13.424;2024-02-21T05:56:44;20.70;49.70
30899;DHT22;17914;52.484;13.424;2024-02-21T05:59:12;20.70;49.90
30899;DHT22;17914;52.484;13.424;2024-02-21T06:01:40;20.70;50.30
30899;DHT22;17914;52.484;13.424;2024-02-21T06:04:09;20.70;50.30
30899;DHT22;17914;52.484;13.424;2024-02-21T06:06:38;20.80;50.50
30899;DHT22;17914;52.484;13.424;2024-02-21T06:09:06;20.70;50.30
30899;DHT22;17914;52.484;13.424;2024-02-21T06:11:34;20.80;50.00
30899;DHT22;17914;52.484;13.424;2024-02-21T06:14:04;20.70;49.90
30899;DHT22;17914;52.484;13.424;2024-02-21T06:16:32;20.70;49.80
30899;DHT22;17914;52.484;13.424;2024-02-21T06:19:00;20.70;50.00
30899;DHT22;17914;52.484;13.424;2024-02-21T06:21:33;20.70;50.30
30899;DHT22;17914;52.484;13.424;2024-02-21T06:24:01;20.70;50.30
30899;DHT22;17914;52.484;13.424;2024-02-21T06:26:29;20.70;50.30
30899;DHT22;17914;52.484;13.424;2024-02-21T06:28:57;20.60;49.90
30899;DHT22;17914;52.484;13.424;2024-02-21T06:31:27;20.60;50.00
30899;DHT22;17914;52.484;13.424;2024-02-21T06:33:55;20.60;50.60
30899;DHT22;17914;52.484;13.424;2024-02-21T06:36:24;20.60;50.00
30899;DHT22;17914;52.484;13.424;2024-02-21T06:38:53;20.70;50.20
30899;DHT22;17914;52.484;13.424;2024-02-21T06:41:21;20.70;50.10
30899;DHT22;17914;52.484;13.424;2024-02-21T06:43:50;20.60;50.00
30899;DHT22;17914;52.484;13.424;2024-02-21T06:46:25;20.60;50.00
30899;DHT22;17914;52.484;13.424;2024-02-21T06:48:53;20.60;49.80
30899;DHT22;17914;52.484;13.424;2024-02-21T06:51:23;20.60;49.80
30899;DHT22;17914;52.484;13.424;2024-02-21T06:53:53;20.70;50.00
30899;DHT22;17914;52.484;13.424;2024-02-21T06:56:24;20.70;50.10
30899;DHT22;17914;52.484;13.424;2024-02-21T06:58:55;20.70;49.90
30899;DHT22;17914;52.484;13.424;2024-02-21T07:01:23;20.60;50.30
30899;DHT22;17914;52.484;13.424;2024-02-21T07:03:52;20.60;49.80
30899;DHT22;17914;52.484;13.424;2024-02-21T07:06:20;20.60;49.80
30899;DHT22;17914;52.484;13.424;2024-02-21T07:08:48;20.60;49.80
30899;DHT22;17914;52.484;13.424;2024-02-21T07:11:17;20.60;49.80
30899;DHT22;17914;52.484;13.424;2024-02-21T07:13:46;20.60;49.80
30899;DHT22;17914;52.484;13.424;2024-02-21T07:16:14;20.60;50.10
30899;DHT22;17914;52.484;13.424;2024-02-21T07:18:42;20.60;50.70
30899;DHT22;17914;52.484;13.424;2024-02-21T07:21:10;20.50;49.70
30899;DHT22;17914;52.484;13.424;2024-02-21T07:23:41;20.50;49.90
30899;DHT22;17914;52.484;13.424;2024-02-21T07:26:09;20.50;49.60
30899;DHT22;17914;52.484;13.424;2024-02-21T07:28:39;20.60;50.40
30899;DHT22;17914;52.484;13.424;2024-02-21T07:31:07;20.60;49.80
30899;DHT22;17914;52.484;13.424;2024-02-21T07:33:35;20.60;49.60
30899;DHT22;17914;52.484;13.424;2024-02-21T07:36:06;20.60;49.70
30899;DHT22;17914;52.484;13.424;2024-02-21T07:38:34;20.60;50.10
30899;DHT22;17914;52.484;13.424;2024-02-21T07:41:02;20.60;49.80
30899;DHT22;17914;52.484;13.424;2024-02-21T07:43:30;20.60;49.60
30899;DHT22;17914;52.484;13.424;2024-02-21T07:46:00;20.50;49.60
30899;DHT22;17914;52.484;13.424;2024-02-21T07:48:28;20.50;49.70
30899;DHT22;17914;52.484;13.424;2024-02-21T07:51:00;20.60;49.70
30899;DHT22;17914;52.484;13.424;2024-02-21T07:53:28;20.60;49.70
30899;DHT22;17914;52.484;13.424;2024-02-21T07:55:56;20.60;49.70
30899;DHT22;17914;52.484;13.424;2024-02-21T07:58:24;20.60;49.60
30899;DHT22;17914;52.484;13.424;2024-02-21T08:00:52;20.60;49.70
30899;DHT22;17914;52.484;13.424;2024-02-21T08:03:22;20.60;49.50
30899;DHT22;17914;52.484;13.424;2024-02-21T08:05:52;20.50;49.60
30899;DHT22;17914;52.484;13.424;2024-02-21T08:08:20;20.60;49.70
30899;DHT22;17914;52.484;13.424;2024-02-21T08:10:49;20.50;49.70
30899;DHT22;17914;52.484;13.424;2024-02-21T08:13:17;20.50;49.50
30899;DHT22;17914;52.484;13.424;2024-02-21T08:15:45;20.50;49.60
30899;DHT22;17914;52.484;13.424;2024-02-21T08:18:13;20.50;49.50
30899;DHT22;17914;52.484;13.424;2024-02-21T08:20:43;20.50;49.40
30899;DHT22;17914;52.484;13.424;2024-02-21T08:23:11;20.50;49.70
30899;DHT22;17914;52.484;13.424;2024-02-21T08:25:39;20.50;49.50
30899;DHT22;17914;52.484;13.424;2024-02-21T08:28:07;20.60;49.50
30899;DHT22;17914;52.484;13.424;2024-02-21T08:30:35;20.60;49.70
30899;DHT22;17914;52.484;13.424;2024-02-21T08:33:03;20.60;49.50
30899;DHT22;17914;52.484;13.424;2024-02-21T08:35:32;20.50;49.50
30899;DHT22;17914;52.484;13.424;2024-02-21T08:38:01;20.60;49.40
30899;DHT22;17914;52.484;13.424;2024-02-21T08:40:29;20.60;49.40
30899;DHT22;17914;52.484;13.424;2024-02-21T08:42:57;20.60;49.30
30899;DHT22;17914;52.484;13.424;2024-02-21T08:45:25;20.60;49.40
30899;DHT22;17914;52.484;13.424;2024-02-21T08:47:53;20.60;49.50
30899;DHT22;17914;52.484;13.424;2024-02-21T08:50:21;20.70;49.80
30899;DHT22;17914;52.484;13.424;2024-02-21T08:52:55;20.70;49.50
30899;DHT22;17914;52.484;13.424;2024-02-21T08:55:25;20.70;49.60
30899;DHT22;17914;52.484;13.424;2024-02-21T08:57:53;20.70;49.50
30899;DHT22;17914;52.484;13.424;2024-02-21T09:00:21;20.70;49.60
30899;DHT22;17914;52.484;13.424;2024-02-21T09:02:54;20.70;49.20
30899;DHT22;17914;52.484;13.424;2024-02-21T09:05:23;20.70;49.30
30899;DHT22;17914;52.484;13.424;2024-02-21T09:07:52;20.70;49.00
30899;DHT22;17914;52.484;13.424;2024-02-21T09:10:20;20.70;49.40
30899;DHT22;17914;52.484;13.424;2024-02-21T09:12:50;20.70;49.30
30899;DHT22;17914;52.484;13.424;2024-02-21T09:15:18;20.70;49.30
30899;DHT22;17914;52.484;13.424;2024-02-21T09:17:46;20.70;49.30
30899;DHT22;17914;52.484;13.424;2024-02-21T09:20:14;20.80;49.40
30899;DHT22;17914;52.484;13.424;2024-02-21T09:22:43;20.70;49.40
30899;DHT22;17914;52.484;13.424;2024-02-21T09:25:11;20.60;49.30
30899;DHT22;17914;52.484;13.424;2024-02-21T09:27:40;20.70;49.70
30899;DHT22;17914;52.484;13.424;2024-02-21T09:30:10;20.60;49.40
30899;DHT22;17914;52.484;13.424;2024-02-21T09:32:39;20.70;49.50
30899;DHT22;17914;52.484;13.424;2024-02-21T09:35:07;20.70;49.10
30899;DHT22;17914;52.484;13.424;2024-02-21T09:37:36;20.70;49.20
30899;DHT22;17914;52.484;13.424;2024-02-21T09:40:05;20.70;49.10
30899;DHT22;17914;52.484;13.424;2024-02-21T09:42:37;20.70;49.10
30899;DHT22;17914;52.484;13.424;2024-02-21T09:45:19;21.00;48.60
30899;DHT22;17914;52.484;13.424;2024-02-21T09:47:50;21.10;49.00
30899;DHT22;17914;52.484;13.424;2024-02-21T09:50:24;21.20;48.70
30899;DHT22;17914;52.484;13.424;2024-02-21T09:52:54;21.20;48.70
30899;DHT22;17914;52.484;13.424;2024-02-21T09:55:24;21.20;48.90
30899;DHT22;17914;52.484;13.424;2024-02-21T09:57:54;21.20;49.10
30899;DHT22;17914;52.484;13.424;2024-02-21T10:00:23;21.20;49.10
30899;DHT22;17914;52.484;13.424;2024-02-21T10:02:51;21.20;49.40
30899;DHT22;17914;52.484;13.424;2024-02-21T10:05:19;21.30;49.90
30899;DHT22;17914;52.484;13.424;2024-02-21T10:07:48;21.30;49.40
30899;DHT22;17914;52.484;13.424;2024-02-21T10:10:17;21.30;49.50
30899;DHT22;17914;52.484;13.424;2024-02-21T10:12:48;21.30;49.50
30899;DHT22;17914;52.484;13.424;2024-02-21T10:15:20;21.30;49.50
30899;DHT22;17914;52.484;13.424;2024-02-21T10:17:58;21.30;49.50
30899;DHT22;17914;52.484;13.424;2024-02-21T10:20:26;21.40;49.60
30899;DHT22;17914;52.484;13.424;2024-02-21T10:23:01;21.30;49.50
30899;DHT22;17914;52.484;13.424;2024-02-21T10:25:30;21.40;49.60
30899;DHT22;17914;52.484;13.424;2024-02-21T10:27:58;21.40;49.50
30899;DHT22;17914;52.484;13.424;2024-02-21T10:30:26;21.50;49.50
30899;DHT22;17914;52.484;13.424;2024-02-21T10:32:56;21.50;49.60
30899;DHT22;17914;52.484;13.424;2024-02-21T10:35:28;21.50;49.60
30899;DHT22;17914;52.484;13.424;2024-02-21T10:37:57;21.50;49.60
30899;DHT22;17914;52.484;13.424;2024-02-21T10:40:27;21.60;49.60
30899;DHT22;17914;52.484;13.424;2024-02-21T10:42:57;21.60;49.50
30899;DHT22;17914;52.484;13.424;2024-02-21T10:45:29;21.60;49.50
30899;DHT22;17914;52.484;13.424;2024-02-21T10:48:10;21.60;49.60
30899;DHT22;17914;52.484;13.424;2024-02-21T10:50:47;21.60;49.50
30899;DHT22;17914;52.484;13.424;2024-02-21T10:53:27;21.60;49.40
30899;DHT22;17914;52.484;13.424;2024-02-21T10:56:05;21.70;49.60
30899;DHT22;17914;52.484;13.424;2024-02-21T10:58:39;21.70;49.50
30899;DHT22;17914;52.484;13.424;2024-02-21T11:01:08;21.70;49.60
30899;DHT22;17914;52.484;13.424;2024-02-21T11:03:37;21.70;49.60
30899;DHT22;17914;52.484;13.424;2024-02-21T11:06:06;21.70;49.50
30899;DHT22;17914;52.484;13.424;2024-02-21T11:08:35;21.70;49.50
30899;DHT22;17914;52.484;13.424;2024-02-21T11:11:05;21.80;49.60
30899;DHT22;17914;52.484;13.424;2024-02-21T11:13:35;21.90;48.90
30899;DHT22;17914;52.484;13.424;2024-02-21T11:16:08;21.70;48.80
30899;DHT22;17914;52.484;13.424;2024-02-21T11:18:38;21.70;48.90
30899;DHT22;17914;52.484;13.424;2024-02-21T11:21:07;21.70;48.90
30899;DHT22;17914;52.484;13.424;2024-02-21T11:23:35;21.70;49.00
30899;DHT22;17914;52.484;13.424;2024-02-21T11:26:05;21.70;49.10
30899;DHT22;17914;52.484;13.424;2024-02-21T11:28:33;21.80;49.20
30899;DHT22;17914;52.484;13.424;2024-02-21T11:31:10;21.90;49.30
30899;DHT22;17914;52.484;13.424;2024-02-21T11:33:42;21.90;49.10
30899;DHT22;17914;52.484;13.424;2024-02-21T11:36:10;21.90;49.00
30899;DHT22;17914;52.484;13.424;2024-02-21T11:38:38;22.00;49.00
30899;DHT22;17914;52.484;13.424;2024-02-21T11:41:08;22.00;48.80
30899;DHT22;17914;52.484;13.424;2024-02-21T11:43:39;21.90;49.00
30899;DHT22;17914;52.484;13.424;2024-02-21T11:46:08;21.80;49.10
30899;DHT22;17914;52.484;13.424;2024-02-21T11:48:36;21.80;49.10
30899;DHT22;17914;52.484;13.424;2024-02-21T11:51:06;21.80;49.20
30899;DHT22;17914;52.484;13.424;2024-02-21T11:53:34;21.70;49.30
30899;DHT22;17914;52.484;13.424;2024-02-21T11:56:14;21.70;49.40
30899;DHT22;17914;52.484;13.424;2024-02-21T11:58:42;21.70;50.00
30899;DHT22;17914;52.484;13.424;2024-02-21T12:01:10;21.70;49.40
30899;DHT22;17914;52.484;13.424;2024-02-21T12:03:39;21.60;49.40
30899;DHT22;17914;52.484;13.424;2024-02-21T12:06:10;21.60;49.50
30899;DHT22;17914;52.484;13.424;2024-02-21T12:08:41;21.60;49.50
30899;DHT22;17914;52.484;13.424;2024-02-21T12:11:20;21.60;49.60
30899;DHT22;17914;52.484;13.424;2024-02-21T12:13:59;21.60;49.60
30899;DHT22;17914;52.484;13.424;2024-02-21T12:16:30;21.50;49.70
30899;DHT22;17914;52.484;13.424;2024-02-21T12:18:59;21.50;49.70
30899;DHT22;17914;52.484;13.424;2024-02-21T12:21:30;21.50;49.70
30899;DHT22;17914;52.484;13.424;2024-02-21T12:24:00;21.50;50.30
30899;DHT22;17914;52.484;13.424;2024-02-21T12:26:28;21.50;49.70
30899;DHT22;17914;52.484;13.424;2024-02-21T12:28:56;21.50;49.70
30899;DHT22;17914;52.484;13.424;2024-02-21T12:31:24;21.50;49.70
30899;DHT22;17914;52.484;13.424;2024-02-21T12:33:52;21.40;49.70
30899;DHT22;17914;52.484;13.424;2024-02-21T12:36:20;21.40;50.40
30899;DHT22;17914;52.484;13.424;2024-02-21T12:38:50;21.40;49.80
30899;DHT22;17914;52.484;13.424;2024-02-21T12:41:18;21.40;49.80
30899;DHT22;17914;52.484;13.424;2024-02-21T12:43:46;21.40;49.90
30899;DHT22;17914;52.484;13.424;2024-02-21T12:46:14;21.40;49.90
30899;DHT22;17914;52.484;13.424;2024-02-21T12:48:42;21.30;50.00
30899;DHT22;17914;52.484;13.424;2024-02-21T12:51:10;21.30;50.00
30899;DHT22;17914;52.484;13.424;2024-02-21T12:53:39;21.30;50.00
30899;DHT22;17914;52.484;13.424;2024-02-21T12:56:09;21.30;50.10
30899;DHT22;17914;52.484;13.424;2024-02-21T12:58:37;21.30;50.10
30899;DHT22;17914;52.484;13.424;2024-02-21T13:01:05;21.40;50.10
30899;DHT22;17914;52.484;13.424;2024-02-21T13:03:33;21.30;50.10
30899;DHT22;17914;52.484;13.424;2024-02-21T13:06:01;21.30;50.10
30899;DHT22;17914;52.484;13.424;2024-02-21T13:08:29;21.30;50.20
30899;DHT22;17914;52.484;13.424;2024-02-21T13:10:57;21.30;50.20
30899;DHT22;17914;52.484;13.424;2024-02-21T13:13:26;21.30;50.20
30899;DHT22;17914;52.484;13.424;2024-02-21T13:15:54;21.30;50.20
30899;DHT22;17914;52.484;13.424;2024-02-21T13:18:22;21.30;50.30
30899;DHT22;17914;52.484;13.424;2024-02-21T13:20:51;21.20;50.30
30899;DHT22;17914;52.484;13.424;2024-02-21T13:23:19;21.20;50.30
30899;DHT22;17914;52.484;13.424;2024-02-21T13:25:48;21.20;50.40
30899;DHT22;17914;52.484;13.424;2024-02-21T13:28:17;21.20;50.30
30899;DHT22;17914;52.484;13.424;2024-02-21T13:30:47;21.20;50.40
30899;DHT22;17914;52.484;13.424;2024-02-21T13:33:15;21.20;50.50
30899;DHT22;17914;52.484;13.424;2024-02-21T13:35:43;21.20;50.50
30899;DHT22;17914;52.484;13.424;2024-02-21T13:38:11;21.20;50.60
30899;DHT22;17914;52.484;13.424;2024-02-21T13:40:40;21.20;50.50
30899;DHT22;17914;52.484;13.424;2024-02-21T13:43:09;21.20;50.50
30899;DHT22;17914;52.484;13.424;2024-02-21T13:45:38;21.20;50.50
30899;DHT22;17914;52.484;13.424;2024-02-21T13:48:10;21.20;50.60
30899;DHT22;17914;52.484;13.424;2024-02-21T13:50:41;21.20;50.60
30899;DHT22;17914;52.484;13.424;2024-02-21T13:53:10;21.20;50.70
30899;DHT22;17914;52.484;13.424;2024-02-21T13:55:38;21.10;50.60
30899;DHT22;17914;52.484;13.424;2024-02-21T13:58:07;21.10;50.60
30899;DHT22;17914;52.484;13.424;2024-02-21T14:00:35;21.10;50.70
30899;DHT22;17914;52.484;13.424;2024-02-21T14:03:04;21.10;50.70
30899;DHT22;17914;52.484;13.424;2024-02-21T14:05:33;21.10;50.70
30899;DHT22;17914;52.484;13.424;2024-02-21T14:08:02;21.10;50.70
30899;DHT22;17914;52.484;13.424;2024-02-21T14:10:30;21.10;50.70
30899;DHT22;17914;52.484;13.424;2024-02-21T14:12:58;21.10;50.80
30899;DHT22;17914;52.484;13.424;2024-02-21T14:15:26;21.10;50.80
30899;DHT22;17914;52.484;13.424;2024-02-21T14:17:54;21.10;50.90
30899;DHT22;17914;52.484;13.424;2024-02-21T14:20:23;21.10;50.90
30899;DHT22;17914;52.484;13.424;2024-02-21T14:22:52;21.10;50.90
30899;DHT22;17914;52.484;13.424;2024-02-21T14:25:20;21.10;50.80
30899;DHT22;17914;52.484;13.424;2024-02-21T14:27:48;21.10;50.90
30899;DHT22;17914;52.484;13.424;2024-02-21T14:30:17;21.10;50.90
30899;DHT22;17914;52.484;13.424;2024-02-21T14:32:45;21.10;51.00
30899;DHT22;17914;52.484;13.424;2024-02-21T14:35:13;21.10;51.00
30899;DHT22;17914;52.484;13.424;2024-02-21T14:37:42;21.10;51.00
30899;DHT22;17914;52.484;13.424;2024-02-21T14:40:12;21.10;51.10
30899;DHT22;17914;52.484;13.424;2024-02-21T14:42:41;21.10;51.00
30899;DHT22;17914;52.484;13.424;2024-02-21T14:45:09;21.10;51.10
30899;DHT22;17914;52.484;13.424;2024-02-21T14:47:37;21.10;51.00
30899;DHT22;17914;52.484;13.424;2024-02-21T14:50:06;21.10;51.00
30899;DHT22;17914;52.484;13.424;2024-02-21T14:52:36;21.10;51.00
30899;DHT22;17914;52.484;13.424;2024-02-21T14:55:06;21.10;51.00
30899;DHT22;17914;52.484;13.424;2024-02-21T14:57:35;21.10;51.10
30899;DHT22;17914;52.484;13.424;2024-02-21T15:00:07;21.10;51.10
30899;DHT22;17914;52.484;13.424;2024-02-21T15:02:35;21.10;51.20
30899;DHT22;17914;52.484;13.424;2024-02-21T15:05:04;21.00;51.20
30899;DHT22;17914;52.484;13.424;2024-02-21T15:07:33;21.00;51.20
30899;DHT22;17914;52.484;13.424;2024-02-21T15:10:02;21.00;51.20
30899;DHT22;17914;52.484;13.424;2024-02-21T15:12:30;21.00;51.20
30899;DHT22;17914;52.484;13.424;2024-02-21T15:15:00;21.00;51.20
30899;DHT22;17914;52.484;13.424;2024-02-21T15:17:28;21.00;51.20
30899;DHT22;17914;52.484;13.424;2024-02-21T15:19:56;21.00;51.20
30899;DHT22;17914;52.484;13.424;2024-02-21T15:22:26;21.00;51.30
30899;DHT22;17914;52.484;13.424;2024-02-21T15:24:54;21.00;51.30
30899;DHT22;17914;52.484;13.424;2024-02-21T15:27:22;21.00;51.30